Time;durP1;ratioP1;P1;durP2;ratioP2;P2;SDS_P1;SDS_P2;PMS_P1;PMS_P2;Temp;Humidity;BMP_temperature;BMP_pressure;BME280_temperature;BME280_humidity;BME280_pressure;Samples;Min_cycle;Max_cycle;Signal;HPM_P1;HPM_P2
2022/01/24 00:00:10;;;;;;;14.33;9.00;;;;;;;;;;5038725;28;20077;-70
2022/01/24 00:02:37;;;;;;;16.70;10.97;;;;;;;;;;5038902;28;20110;-70
2022/01/24 00:05:03;;;;;;;14.57;9.43;;;;;;;;;;5037538;28;20046;-70
2022/01/24 00:07:29;;;;;;;14.33;10.30;;;;;;;;;;5040543;28;20045;-71
2022/01/24 00:09:59;;;;;;;16.73;11.20;;;;;;;;;;5021224;28;20507;-71
2022/01/24 00:12:36;;;;;;;15.93;10.50;;;;;;;;;;5023530;28;20049;-71
2022/01/24 00:17:36;;;;;;;17.70;11.60;;;;;;;;;;5039240;28;20059;-71
2022/01/24 00:28:19;;;;;;;19.83;12.17;;;;;;;;;;5060534;28;20056;-71
2022/01/24 00:30:45;;;;;;;19.43;12.93;;;;;;;;;;5041851;28;20532;-70
2022/01/24 00:33:11;;;;;;;21.87;13.93;;;;;;;;;;5041734;28;20541;-70
2022/01/24 00:35:37;;;;;;;21.93;13.77;;;;;;;;;;5042376;28;20041;-70
2022/01/24 00:38:03;;;;;;;21.40;13.20;;;;;;;;;;5040159;28;20041;-71
2022/01/24 00:40:34;;;;;;;22.93;13.60;;;;;;;;;;5033353;28;20037;-70
2022/01/24 00:43:01;;;;;;;20.90;13.90;;;;;;;;;;5041879;28;20038;-70
2022/01/24 00:45:34;;;;;;;18.93;12.97;;;;;;;;;;5041967;28;20538;-70
2022/01/24 00:55:46;;;;;;;21.90;13.70;;;;;;;;;;5040279;28;20502;-70
2022/01/24 00:58:12;;;;;;;21.67;14.23;;;;;;;;;;5040622;28;20052;-70
2022/01/24 01:00:38;;;;;;;23.00;14.37;;;;;;;;;;5041617;28;20128;-70
2022/01/24 01:03:04;;;;;;;23.73;14.57;;;;;;;;;;5043758;28;20411;-70
2022/01/24 01:06:13;;;;;;;20.43;14.50;;;;;;;;;;5041235;28;20056;-70
2022/01/24 01:19:00;;;;;;;20.53;14.00;;;;;;;;;;5037504;28;20420;-71
2022/01/24 01:21:26;;;;;;;21.43;15.47;;;;;;;;;;5041138;28;20087;-71
2022/01/24 01:23:54;;;;;;;23.73;14.50;;;;;;;;;;5044753;28;20113;-71
2022/01/24 01:29:00;;;;;;;23.73;16.27;;;;;;;;;;5052641;28;20491;-70
2022/01/24 01:31:41;;;;;;;24.57;16.30;;;;;;;;;;5033031;28;20405;-71
2022/01/24 01:39:53;;;;;;;23.37;16.90;;;;;;;;;;5028253;28;20104;-70
2022/01/24 01:53:49;;;;;;;24.93;16.50;;;;;;;;;;5031128;28;20472;-70
2022/01/24 01:56:09;;;;;;;26.83;17.83;;;;;;;;;;5030597;28;20107;-70
2022/01/24 01:58:35;;;;;;;23.67;15.97;;;;;;;;;;5018666;28;20041;-71
2022/01/24 02:01:02;;;;;;;24.43;17.03;;;;;;;;;;5019003;28;20045;-70
2022/01/24 02:03:29;;;;;;;21.97;15.93;;;;;;;;;;5029820;28;20435;-71
2022/01/24 02:05:55;;;;;;;22.37;16.30;;;;;;;;;;5029499;28;20049;-71
2022/01/24 02:08:22;;;;;;;28.97;17.90;;;;;;;;;;5029230;28;20132;-70
2022/01/24 02:10:48;;;;;;;23.53;16.10;;;;;;;;;;5029172;28;20053;-71
2022/01/24 02:13:15;;;;;;;23.20;16.30;;;;;;;;;;5041907;28;20049;-70
2022/01/24 02:15:54;;;;;;;23.73;16.63;;;;;;;;;;5049662;28;20044;-70
2022/01/24 02:23:46;;;;;;;22.83;16.33;;;;;;;;;;5029798;28;20049;-70
2022/01/24 02:26:16;;;;;;;22.53;16.43;;;;;;;;;;5030355;28;20042;-71
2022/01/24 02:31:39;;;;;;;25.47;16.57;;;;;;;;;;5049443;28;20049;-71
2022/01/24 02:34:19;;;;;;;20.67;14.80;;;;;;;;;;5038907;28;20042;-71
2022/01/24 02:36:46;;;;;;;20.43;13.80;;;;;;;;;;5028856;28;20053;-71
2022/01/24 02:50:19;;;;;;;15.80;11.67;;;;;;;;;;5049899;28;20052;-71
2022/01/24 02:52:45;;;;;;;16.17;12.13;;;;;;;;;;5047233;28;20091;-70
2022/01/24 02:55:11;;;;;;;19.27;12.83;;;;;;;;;;5029657;28;20054;-71
2022/01/24 02:57:37;;;;;;;18.13;12.90;;;;;;;;;;5028270;28;20045;-71
2022/01/24 03:00:04;;;;;;;21.17;12.67;;;;;;;;;;5028648;28;20045;-71
2022/01/24 03:02:30;;;;;;;19.93;12.30;;;;;;;;;;5027923;28;20136;-71
2022/01/24 03:04:57;;;;;;;19.27;13.20;;;;;;;;;;5029539;28;20136;-71
2022/01/24 03:07:23;;;;;;;16.63;11.90;;;;;;;;;;5029789;28;20451;-71
2022/01/24 03:09:52;;;;;;;18.73;12.80;;;;;;;;;;5038577;28;20041;-71
2022/01/24 03:12:38;;;;;;;19.37;14.13;;;;;;;;;;5029410;28;20562;-70
2022/01/24 03:15:04;;;;;;;18.50;12.23;;;;;;;;;;5028891;28;20100;-70
2022/01/24 03:17:30;;;;;;;19.90;13.03;;;;;;;;;;5028365;28;20041;-71
2022/01/24 03:19:56;;;;;;;17.87;11.80;;;;;;;;;;5029268;28;20542;-71
2022/01/24 03:22:22;;;;;;;17.33;12.03;;;;;;;;;;5046967;28;20067;-70
2022/01/24 03:24:49;;;;;;;16.57;11.80;;;;;;;;;;5047845;28;20132;-71
2022/01/24 03:27:16;;;;;;;16.97;11.57;;;;;;;;;;5041220;28;20131;-71
2022/01/24 03:29:42;;;;;;;19.03;10.90;;;;;;;;;;5028069;28;20827;-71
2022/01/24 03:32:08;;;;;;;22.27;12.13;;;;;;;;;;5011493;28;20041;-71
2022/01/24 03:34:34;;;;;;;19.40;14.03;;;;;;;;;;5028273;28;20052;-71
2022/01/24 03:37:00;;;;;;;19.73;13.23;;;;;;;;;;5025195;28;20041;-71
2022/01/24 03:39:26;;;;;;;18.70;13.97;;;;;;;;;;5048668;28;20137;-71
2022/01/24 03:41:52;;;;;;;19.70;13.47;;;;;;;;;;5031146;28;20138;-71
2022/01/24 03:44:19;;;;;;;18.13;12.57;;;;;;;;;;5041234;28;20045;-71
2022/01/24 03:52:09;;;;;;;20.57;14.43;;;;;;;;;;5044286;28;20396;-71
2022/01/24 03:54:35;;;;;;;25.00;16.10;;;;;;;;;;5028540;28;20084;-70
2022/01/24 03:57:01;;;;;;;24.00;16.77;;;;;;;;;;5029136;28;20045;-70
2022/01/24 03:59:29;;;;;;;22.70;16.60;;;;;;;;;;5028953;28;20053;-71
2022/01/24 04:01:55;;;;;;;24.77;16.53;;;;;;;;;;5028612;28;20115;-71
2022/01/24 04:04:21;;;;;;;24.90;18.37;;;;;;;;;;5027547;28;20499;-71
2022/01/24 04:06:48;;;;;;;24.67;15.67;;;;;;;;;;5027753;28;20099;-70
2022/01/24 04:09:14;;;;;;;21.70;15.17;;;;;;;;;;5027604;28;20499;-71
2022/01/24 04:11:41;;;;;;;22.67;16.13;;;;;;;;;;5028971;28;20045;-71
2022/01/24 04:14:31;;;;;;;25.53;17.00;;;;;;;;;;5027641;28;20693;-71
2022/01/24 04:17:21;;;;;;;27.77;17.63;;;;;;;;;;5027320;28;20068;-71
2022/01/24 04:22:38;;;;;;;25.13;16.67;;;;;;;;;;5029076;28;20134;-70
2022/01/24 04:25:05;;;;;;;25.50;17.27;;;;;;;;;;5008707;28;20049;-71
2022/01/24 04:27:32;;;;;;;26.60;17.73;;;;;;;;;;5008902;28;20057;-71
2022/01/24 04:29:58;;;;;;;25.13;17.17;;;;;;;;;;5024580;28;20139;-71
2022/01/24 04:32:24;;;;;;;33.20;21.73;;;;;;;;;;5011340;28;20415;-71
2022/01/24 04:34:51;;;;;;;31.73;20.87;;;;;;;;;;5028314;28;20141;-70
2022/01/24 04:37:17;;;;;;;30.20;19.97;;;;;;;;;;5026222;28;20496;-71
2022/01/24 04:39:44;;;;;;;28.70;19.47;;;;;;;;;;5026982;28;20126;-71
2022/01/24 04:42:18;;;;;;;26.53;19.27;;;;;;;;;;5028237;28;20049;-71
2022/01/24 04:54:51;;;;;;;31.70;19.80;;;;;;;;;;5044270;28;20080;-71
2022/01/24 04:57:19;;;;;;;29.13;18.30;;;;;;;;;;5040768;28;20064;-71
2022/01/24 04:59:47;;;;;;;32.03;19.33;;;;;;;;;;5050791;28;20044;-71
2022/01/24 05:02:14;;;;;;;29.80;19.73;;;;;;;;;;5050327;28;20131;-70
2022/01/24 05:04:39;;;;;;;30.87;20.13;;;;;;;;;;5051856;28;20047;-71
2022/01/24 05:07:06;;;;;;;30.43;19.17;;;;;;;;;;5050577;28;20049;-71
2022/01/24 05:10:39;;;;;;;28.70;19.40;;;;;;;;;;5040877;28;20045;-71
2022/01/24 05:21:10;;;;;;;32.47;20.00;;;;;;;;;;5046014;28;20056;-70
2022/01/24 05:25:54;;;;;;;33.37;22.03;;;;;;;;;;5039162;28;20056;-70
2022/01/24 05:28:20;;;;;;;32.40;21.20;;;;;;;;;;5030116;28;20060;-70
2022/01/24 05:30:46;;;;;;;37.10;20.27;;;;;;;;;;5034932;28;20033;-70
2022/01/24 05:33:12;;;;;;;36.03;23.17;;;;;;;;;;5051124;28;20055;-70
2022/01/24 05:35:38;;;;;;;34.27;22.43;;;;;;;;;;5049979;28;20049;-70
2022/01/24 05:38:05;;;;;;;37.00;23.30;;;;;;;;;;5049237;28;20049;-70
2022/01/24 05:40:31;;;;;;;36.37;24.87;;;;;;;;;;5049685;28;20507;-70
2022/01/24 05:42:57;;;;;;;40.33;24.77;;;;;;;;;;5046850;28;20045;-70
2022/01/24 05:45:23;;;;;;;41.43;23.37;;;;;;;;;;5029997;28;20111;-70
2022/01/24 05:47:49;;;;;;;45.53;28.17;;;;;;;;;;5029692;28;20045;-70
2022/01/24 05:50:16;;;;;;;47.63;27.70;;;;;;;;;;5030545;28;20559;-71
2022/01/24 05:52:42;;;;;;;47.23;27.00;;;;;;;;;;5031229;28;20045;-70
2022/01/24 05:55:08;;;;;;;47.97;27.10;;;;;;;;;;5029813;28;20439;-71
2022/01/24 05:57:36;;;;;;;45.43;28.17;;;;;;;;;;5031739;28;20635;-71
2022/01/24 06:00:02;;;;;;;42.37;26.97;;;;;;;;;;5030258;28;20049;-71
2022/01/24 06:02:28;;;;;;;43.30;26.37;;;;;;;;;;5030806;28;20045;-71
2022/01/24 06:04:54;;;;;;;46.90;29.17;;;;;;;;;;5030562;28;20052;-71
2022/01/24 06:07:21;;;;;;;47.40;29.93;;;;;;;;;;5028726;28;20451;-71
2022/01/24 06:09:47;;;;;;;45.87;27.23;;;;;;;;;;5032121;28;20113;-71
2022/01/24 06:12:13;;;;;;;49.13;28.77;;;;;;;;;;5048839;28;20057;-70
2022/01/24 06:14:39;;;;;;;57.27;31.77;;;;;;;;;;5048882;28;20528;-71
2022/01/24 06:17:05;;;;;;;56.53;33.23;;;;;;;;;;5039034;28;20042;-71
2022/01/24 06:19:31;;;;;;;58.13;34.03;;;;;;;;;;5028990;28;20140;-71
2022/01/24 06:21:57;;;;;;;62.10;34.30;;;;;;;;;;5028770;28;20056;-70
2022/01/24 06:24:23;;;;;;;68.50;38.50;;;;;;;;;;5030052;28;20049;-70
2022/01/24 06:26:49;;;;;;;59.07;35.37;;;;;;;;;;5028977;28;20088;-71
2022/01/24 06:29:15;;;;;;;70.37;39.80;;;;;;;;;;5022068;28;20073;-71
2022/01/24 06:31:41;;;;;;;70.50;39.63;;;;;;;;;;5047923;28;20057;-70
2022/01/24 06:34:07;;;;;;;71.00;39.93;;;;;;;;;;5042967;28;20053;-70
2022/01/24 06:36:33;;;;;;;69.10;40.63;;;;;;;;;;5030359;28;20081;-70
2022/01/24 06:39:01;;;;;;;72.50;40.53;;;;;;;;;;5028034;28;20096;-70
2022/01/24 06:41:32;;;;;;;75.97;42.13;;;;;;;;;;5012169;28;20041;-70
2022/01/24 06:43:58;;;;;;;73.57;42.57;;;;;;;;;;5028252;28;20111;-71
2022/01/24 06:46:24;;;;;;;76.57;44.97;;;;;;;;;;5040017;28;20049;-71
2022/01/24 06:48:50;;;;;;;79.07;44.83;;;;;;;;;;5033434;28;20049;-70
2022/01/24 06:51:18;;;;;;;73.97;41.10;;;;;;;;;;5037370;28;20047;-71
2022/01/24 06:53:44;;;;;;;80.17;44.80;;;;;;;;;;5040833;28;20068;-71
2022/01/24 06:56:10;;;;;;;73.30;44.17;;;;;;;;;;5039841;28;20044;-71
2022/01/24 06:58:37;;;;;;;78.43;44.93;;;;;;;;;;5036669;28;20076;-70
2022/01/24 07:01:03;;;;;;;78.70;45.67;;;;;;;;;;5031697;28;20041;-70
2022/01/24 07:03:29;;;;;;;80.63;44.73;;;;;;;;;;5037142;28;20053;-71
2022/01/24 07:05:56;;;;;;;76.77;44.27;;;;;;;;;;5040801;28;20040;-71
2022/01/24 07:08:21;;;;;;;78.87;45.63;;;;;;;;;;5029350;28;20077;-71
2022/01/24 07:10:48;;;;;;;81.83;44.53;;;;;;;;;;5036043;28;20084;-71
2022/01/24 07:13:14;;;;;;;81.57;43.87;;;;;;;;;;5026331;28;20042;-71
2022/01/24 07:15:47;;;;;;;77.63;45.23;;;;;;;;;;5035020;28;20121;-70
2022/01/24 07:18:57;;;;;;;;;;;;;;;;;;5032011;28;20772;-70
2022/01/24 07:21:01;;;;;;;83.10;44.53;;;;;;;;;;5032443;28;19921;-71
2022/01/24 07:23:27;;;;;;;80.83;44.57;;;;;;;;;;5038974;28;20458;-71
2022/01/24 07:25:53;;;;;;;80.97;45.33;;;;;;;;;;5038607;28;20057;-71
2022/01/24 07:28:20;;;;;;;78.93;45.07;;;;;;;;;;5039952;28;20041;-71
2022/01/24 07:30:46;;;;;;;76.53;43.63;;;;;;;;;;5038620;28;20049;-70
2022/01/24 07:33:14;;;;;;;75.83;44.37;;;;;;;;;;5038817;28;20056;-71
2022/01/24 07:35:41;;;;;;;80.43;45.17;;;;;;;;;;5036768;28;20049;-71
2022/01/24 07:38:07;;;;;;;83.63;45.33;;;;;;;;;;5034834;28;20040;-70
2022/01/24 07:40:38;;;;;;;81.63;45.23;;;;;;;;;;5034037;28;20052;-71
2022/01/24 07:45:36;;;;;;;82.83;46.47;;;;;;;;;;5052709;28;20561;-71
2022/01/24 07:48:03;;;;;;;85.60;48.47;;;;;;;;;;5040856;28;20107;-71
2022/01/24 07:50:29;;;;;;;81.80;46.97;;;;;;;;;;5037450;28;20054;-71
2022/01/24 07:52:55;;;;;;;82.73;48.43;;;;;;;;;;5035923;28;20179;-71
2022/01/24 07:55:22;;;;;;;83.23;47.97;;;;;;;;;;5036269;28;20037;-71
2022/01/24 07:57:48;;;;;;;85.90;48.40;;;;;;;;;;5032389;28;20041;-71
2022/01/24 08:00:16;;;;;;;78.00;47.00;;;;;;;;;;5039186;28;20046;-71
2022/01/24 08:02:42;;;;;;;80.90;47.03;;;;;;;;;;5034558;28;20037;-71
2022/01/24 08:05:09;;;;;;;84.70;47.03;;;;;;;;;;5032427;28;20045;-72
2022/01/24 08:07:36;;;;;;;84.53;47.27;;;;;;;;;;5036335;28;20079;-71
2022/01/24 08:10:02;;;;;;;81.87;44.37;;;;;;;;;;5034206;28;20038;-71
2022/01/24 08:12:28;;;;;;;80.87;47.30;;;;;;;;;;5035007;28;20507;-70
2022/01/24 08:14:54;;;;;;;78.07;46.30;;;;;;;;;;5034438;28;20064;-70
2022/01/24 08:17:20;;;;;;;76.07;44.87;;;;;;;;;;5032407;28;20410;-71
2022/01/24 08:19:46;;;;;;;89.57;48.20;;;;;;;;;;5032865;28;20067;-71
2022/01/24 08:22:13;;;;;;;87.80;47.83;;;;;;;;;;5034559;28;20485;-71
2022/01/24 08:24:39;;;;;;;82.63;48.27;;;;;;;;;;5033000;28;20041;-70
2022/01/24 08:27:05;;;;;;;80.63;46.90;;;;;;;;;;5035756;28;20045;-71
2022/01/24 08:29:31;;;;;;;83.60;46.53;;;;;;;;;;5034017;28;20145;-71
2022/01/24 08:31:57;;;;;;;83.00;46.07;;;;;;;;;;5029338;28;20124;-71
2022/01/24 08:34:23;;;;;;;80.93;47.67;;;;;;;;;;5032844;28;21088;-70
2022/01/24 08:36:49;;;;;;;79.17;46.90;;;;;;;;;;5032947;28;20056;-71
2022/01/24 08:39:15;;;;;;;78.93;45.93;;;;;;;;;;5012955;28;20037;-71
2022/01/24 08:47:06;;;;;;;74.97;44.03;;;;;;;;;;5010888;28;20045;-71
2022/01/24 08:49:32;;;;;;;72.70;42.00;;;;;;;;;;5026373;28;20757;-71
2022/01/24 08:51:59;;;;;;;74.60;42.43;;;;;;;;;;5029174;28;20045;-71
2022/01/24 08:54:26;;;;;;;67.40;40.97;;;;;;;;;;5029897;28;20095;-71
2022/01/24 08:56:52;;;;;;;73.77;42.87;;;;;;;;;;5021843;28;20049;-73
2022/01/24 08:59:18;;;;;;;71.70;42.83;;;;;;;;;;5036113;28;20934;-71
2022/01/24 09:01:46;;;;;;;72.63;43.70;;;;;;;;;;5013576;28;20041;-71
2022/01/24 09:04:12;;;;;;;76.93;42.47;;;;;;;;;;5028050;28;20045;-68
2022/01/24 09:06:38;;;;;;;72.93;41.90;;;;;;;;;;5029474;28;20045;-69
2022/01/24 09:09:05;;;;;;;67.63;42.17;;;;;;;;;;5030463;28;20192;-71
2022/01/24 09:11:35;;;;;;;63.60;38.80;;;;;;;;;;5031145;28;20041;-71
2022/01/24 09:14:02;;;;;;;65.13;38.77;;;;;;;;;;5030254;28;20049;-69
2022/01/24 09:16:28;;;;;;;65.93;37.27;;;;;;;;;;5030371;28;20411;-69
2022/01/24 09:18:54;;;;;;;61.63;38.20;;;;;;;;;;5030323;28;20054;-70
2022/01/24 09:21:21;;;;;;;57.60;37.83;;;;;;;;;;5028895;28;20055;-70
2022/01/24 09:23:47;;;;;;;59.63;35.67;;;;;;;;;;5012745;28;20057;-70
2022/01/24 09:26:13;;;;;;;60.70;37.30;;;;;;;;;;5029693;28;20045;-69
2022/01/24 09:28:39;;;;;;;56.50;36.73;;;;;;;;;;5027457;28;20313;-69
2022/01/24 09:31:06;;;;;;;59.10;37.80;;;;;;;;;;5032417;28;20037;-69
2022/01/24 09:33:32;;;;;;;54.70;36.20;;;;;;;;;;5031202;28;20050;-69
2022/01/24 09:36:00;;;;;;;52.53;35.70;;;;;;;;;;5029771;28;20047;-69
2022/01/24 09:38:30;;;;;;;52.47;32.83;;;;;;;;;;5028897;28;20055;-69
2022/01/24 09:40:56;;;;;;;55.10;34.13;;;;;;;;;;5021283;28;20056;-69
2022/01/24 09:43:22;;;;;;;50.60;33.77;;;;;;;;;;5029303;28;20437;-69
2022/01/24 09:45:48;;;;;;;56.23;35.00;;;;;;;;;;5027557;28;20056;-69
2022/01/24 09:48:16;;;;;;;49.33;32.87;;;;;;;;;;5029253;28;20411;-69
2022/01/24 09:50:42;;;;;;;49.03;32.63;;;;;;;;;;5028865;28;20479;-69
2022/01/24 09:53:08;;;;;;;48.27;31.97;;;;;;;;;;5029499;28;20056;-69
2022/01/24 09:55:34;;;;;;;51.17;32.70;;;;;;;;;;5021381;28;20049;-69
2022/01/24 09:58:00;;;;;;;49.77;32.53;;;;;;;;;;5027747;28;20510;-69
2022/01/24 10:00:27;;;;;;;50.50;32.43;;;;;;;;;;5029408;28;20048;-69
2022/01/24 10:02:54;;;;;;;50.27;32.73;;;;;;;;;;5028045;28;20424;-69
2022/01/24 10:05:20;;;;;;;47.93;31.30;;;;;;;;;;5028134;28;20099;-70
2022/01/24 10:07:54;;;;;;;48.40;32.57;;;;;;;;;;5027807;28;20060;-69
2022/01/24 10:10:21;;;;;;;;;;;;;;;;;;5025824;28;20045;-69
2022/01/24 10:18:02;;;;;;;45.90;31.83;;;;;;;;;;5044209;28;20089;-70
2022/01/24 10:20:33;;;;;;;46.63;30.93;;;;;;;;;;5027658;28;20053;-69
2022/01/24 10:23:20;;;;;;;49.47;31.43;;;;;;;;;;5027222;28;20762;-69
2022/01/24 10:26:03;;;;;;;42.53;29.87;;;;;;;;;;5020304;28;20104;-69
2022/01/24 10:28:37;;;;;;;45.47;30.65;;;;;;;;;;5021293;28;20062;-69
2022/01/24 10:31:11;;;;;;;45.57;31.33;;;;;;;;;;5028973;28;20053;-69
2022/01/24 10:34:01;;;;;;;42.67;29.40;;;;;;;;;;5028617;28;20045;-70
2022/01/24 10:36:36;;;;;;;43.27;30.43;;;;;;;;;;5021617;28;20503;-70
2022/01/24 10:39:12;;;;;;;40.63;29.87;;;;;;;;;;5019317;28;20050;-69
2022/01/24 10:42:25;;;;;;;45.30;31.03;;;;;;;;;;5027567;28;20515;-69
2022/01/24 10:44:30;;;;;;;43.73;31.50;;;;;;;;;;5025293;28;20053;-70
2022/01/24 10:47:12;;;;;;;43.90;29.80;;;;;;;;;;5011421;28;20049;-70
2022/01/24 10:49:40;;;;;;;37.40;27.53;;;;;;;;;;5003843;28;20049;-70
2022/01/24 10:52:18;;;;;;;37.43;27.93;;;;;;;;;;5026070;28;20048;-69
2022/01/24 10:54:45;;;;;;;45.17;30.20;;;;;;;;;;5022049;28;20049;-70
2022/01/24 10:57:20;;;;;;;37.40;27.57;;;;;;;;;;5027990;28;20048;-70
2022/01/24 10:59:46;;;;;;;39.07;28.33;;;;;;;;;;5022445;28;20499;-70
2022/01/24 11:02:15;;;;;;;41.83;29.83;;;;;;;;;;5025976;28;20042;-70
2022/01/24 11:04:41;;;;;;;37.47;28.17;;;;;;;;;;5027354;28;20118;-70
2022/01/24 11:07:07;;;;;;;35.83;24.93;;;;;;;;;;5011091;28;20321;-70
2022/01/24 11:09:40;;;;;;;40.50;26.80;;;;;;;;;;5028123;28;20049;-70
2022/01/24 11:12:08;;;;;;;37.85;27.65;;;;;;;;;;5028084;28;20053;-69
2022/01/24 11:14:36;;;;;;;37.80;26.13;;;;;;;;;;5028384;28;20049;-70
2022/01/24 11:17:03;;;;;;;36.50;26.17;;;;;;;;;;5019923;28;20053;-69
2022/01/24 11:19:41;;;;;;;36.17;25.73;;;;;;;;;;5024872;28;20065;-69
2022/01/24 11:22:18;;;;;;;31.77;24.73;;;;;;;;;;5027455;28;20045;-70
2022/01/24 11:24:51;;;;;;;35.97;25.47;;;;;;;;;;5041147;28;20045;-70
2022/01/24 11:27:17;;;;;;;33.85;24.73;;;;;;;;;;5026739;28;20076;-70
2022/01/24 11:29:44;;;;;;;28.97;23.97;;;;;;;;;;5026564;28;20048;-70
2022/01/24 11:32:19;;;;;;;29.90;22.17;;;;;;;;;;5027230;28;20091;-69
2022/01/24 11:34:49;;;;;;;31.13;25.73;;;;;;;;;;5026354;28;20049;-70
2022/01/24 11:37:34;;;;;;;30.73;24.90;;;;;;;;;;5026358;28;20052;-70
2022/01/24 11:40:00;;;;;;;29.47;24.33;;;;;;;;;;5019107;28;20047;-70
2022/01/24 11:42:28;;;;;;;27.17;23.03;;;;;;;;;;5025740;28;20041;-70
2022/01/24 11:44:55;;;;;;;30.00;24.07;;;;;;;;;;5027180;28;20100;-70
2022/01/24 11:47:26;;;;;;;28.27;23.80;;;;;;;;;;5028532;28;20056;-70
2022/01/24 11:49:53;;;;;;;28.20;24.53;;;;;;;;;;5025708;28;20048;-70
2022/01/24 11:52:20;;;;;;;36.40;27.03;;;;;;;;;;5022673;28;20041;-70
2022/01/24 11:54:56;;;;;;;31.73;26.33;;;;;;;;;;5023309;28;20051;-69
2022/01/24 11:57:24;;;;;;;32.20;27.30;;;;;;;;;;5022335;28;20086;-70
2022/01/24 11:59:52;;;;;;;30.70;25.03;;;;;;;;;;5024091;28;20137;-70
2022/01/24 12:02:23;;;;;;;29.87;25.43;;;;;;;;;;5025404;28;20046;-70
2022/01/24 12:04:49;;;;;;;30.90;23.77;;;;;;;;;;5028511;28;20050;-70
2022/01/24 12:07:24;;;;;;;19.53;16.80;;;;;;;;;;5029736;28;20119;-70
2022/01/24 12:09:51;;;;;;;21.80;18.13;;;;;;;;;;5025170;28;20049;-70
2022/01/24 12:12:36;;;;;;;24.70;20.63;;;;;;;;;;5041848;28;20056;-70
2022/01/24 12:15:02;;;;;;;27.77;22.93;;;;;;;;;;5038396;28;20045;-70
2022/01/24 12:17:45;;;;;;;33.33;24.63;;;;;;;;;;5026728;28;20396;-70
2022/01/24 12:20:29;;;;;;;21.83;17.63;;;;;;;;;;5025979;28;20053;-70
2022/01/24 12:22:56;;;;;;;19.10;16.70;;;;;;;;;;5044539;28;20055;-70
2022/01/24 12:25:40;;;;;;;23.20;18.63;;;;;;;;;;5041651;28;20042;-70
2022/01/24 12:28:20;;;;;;;20.40;17.53;;;;;;;;;;5028538;28;20163;-70
2022/01/24 12:30:58;;;;;;;18.83;16.03;;;;;;;;;;5028091;28;20045;-70
2022/01/24 12:33:44;;;;;;;18.80;15.43;;;;;;;;;;5030382;28;20524;-70
2022/01/24 12:36:14;;;;;;;17.30;14.27;;;;;;;;;;5042810;28;20099;-70
2022/01/24 12:38:48;;;;;;;24.03;18.93;;;;;;;;;;5030755;28;20099;-70
2022/01/24 12:41:20;;;;;;;17.33;14.27;;;;;;;;;;5030017;28;20084;-70
2022/01/24 12:43:59;;;;;;;18.37;14.70;;;;;;;;;;5031187;28;20053;-70
2022/01/24 12:46:27;;;;;;;21.83;18.37;;;;;;;;;;5031263;28;20800;-70
2022/01/24 12:48:57;;;;;;;20.77;16.47;;;;;;;;;;5029530;28;20074;-70
2022/01/24 12:51:28;;;;;;;18.90;14.73;;;;;;;;;;5031846;28;20045;-70
2022/01/24 12:53:54;;;;;;;18.33;14.60;;;;;;;;;;5030435;28;20049;-70
2022/01/24 12:56:31;;;;;;;15.60;13.83;;;;;;;;;;5030658;28;20148;-70
2022/01/24 12:58:57;;;;;;;20.37;15.67;;;;;;;;;;5030902;28;20080;-71
2022/01/24 13:01:31;;;;;;;20.70;15.97;;;;;;;;;;5014000;28;20551;-71
2022/01/24 13:03:58;;;;;;;20.55;17.73;;;;;;;;;;5030616;28;20049;-70
2022/01/24 13:06:25;;;;;;;20.50;16.47;;;;;;;;;;5029442;28;20079;-71
2022/01/24 13:09:12;;;;;;;22.23;17.77;;;;;;;;;;5038853;28;20046;-71
2022/01/24 13:11:58;;;;;;;23.60;17.93;;;;;;;;;;5012861;28;20618;-71
2022/01/24 13:14:30;;;;;;;19.20;16.20;;;;;;;;;;5029895;28;20130;-71
2022/01/24 13:22:40;;;;;;;22.20;17.83;;;;;;;;;;5028595;28;20054;-71
2022/01/24 13:25:06;;;;;;;21.73;19.17;;;;;;;;;;5030113;28;20056;-71
2022/01/24 13:27:41;;;;;;;24.27;20.13;;;;;;;;;;5030188;28;20049;-71
2022/01/24 13:30:13;;;;;;;25.17;19.97;;;;;;;;;;5043255;28;20131;-70
2022/01/24 13:32:42;;;;;;;23.47;20.00;;;;;;;;;;5032838;28;20049;-70
2022/01/24 13:35:12;;;;;;;22.70;19.10;;;;;;;;;;5029751;28;20041;-70
2022/01/24 13:37:39;;;;;;;25.97;20.77;;;;;;;;;;5035779;28;20045;-70
2022/01/24 13:40:06;;;;;;;27.70;23.60;;;;;;;;;;5031829;28;20041;-70
2022/01/24 13:42:35;;;;;;;28.53;22.23;;;;;;;;;;5029870;28;20450;-70
2022/01/24 13:45:01;;;;;;;27.07;21.53;;;;;;;;;;5028111;28;20049;-70
2022/01/24 13:47:27;;;;;;;27.13;22.77;;;;;;;;;;5029399;28;20049;-70
2022/01/24 13:49:53;;;;;;;28.97;23.50;;;;;;;;;;5027671;28;20663;-70
2022/01/24 13:52:20;;;;;;;27.60;23.17;;;;;;;;;;5021939;28;20077;-70
2022/01/24 13:54:46;;;;;;;30.40;23.33;;;;;;;;;;5027628;28;20072;-70
2022/01/24 13:57:19;;;;;;;30.30;24.23;;;;;;;;;;5028878;28;20866;-70
2022/01/24 13:59:45;;;;;;;31.83;24.53;;;;;;;;;;5028596;28;20544;-71
2022/01/24 14:02:12;;;;;;;30.07;25.73;;;;;;;;;;5029053;28;20315;-71
2022/01/24 14:04:48;;;;;;;35.73;26.90;;;;;;;;;;5028829;28;20057;-70
2022/01/24 14:07:16;;;;;;;30.93;25.40;;;;;;;;;;5029869;28;20049;-71
2022/01/24 14:09:46;;;;;;;33.03;24.70;;;;;;;;;;5028289;28;20049;-71
2022/01/24 14:12:14;;;;;;;32.60;25.63;;;;;;;;;;5029854;28;20080;-70
2022/01/24 14:19:38;;;;;;;34.43;26.67;;;;;;;;;;5028010;28;20077;-71
2022/01/24 14:22:06;;;;;;;33.67;26.20;;;;;;;;;;5020786;28;20060;-70
2022/01/24 14:24:42;;;;;;;36.60;26.80;;;;;;;;;;5027456;28;20463;-70
2022/01/24 14:27:08;;;;;;;35.10;27.30;;;;;;;;;;5027251;28;20042;-70
2022/01/24 14:29:38;;;;;;;29.37;25.67;;;;;;;;;;5028233;28;20512;-67
2022/01/24 14:32:10;;;;;;;27.97;23.07;;;;;;;;;;5019540;28;20149;-67
2022/01/24 14:34:36;;;;;;;32.23;24.43;;;;;;;;;;5028161;28;20049;-67
2022/01/24 14:37:06;;;;;;;34.13;27.10;;;;;;;;;;5027161;28;20049;-68
2022/01/24 14:39:42;;;;;;;35.83;26.40;;;;;;;;;;5027884;28;20045;-68
2022/01/24 14:42:11;;;;;;;36.27;28.20;;;;;;;;;;5019241;28;20120;-68
2022/01/24 14:44:57;;;;;;;34.20;26.47;;;;;;;;;;5029004;28;20051;-69
2022/01/24 14:47:24;;;;;;;32.03;25.87;;;;;;;;;;5027491;28;20423;-69
2022/01/24 14:49:50;;;;;;;37.27;27.50;;;;;;;;;;5029262;28;20052;-69
2022/01/24 14:52:19;;;;;;;32.47;26.17;;;;;;;;;;5028525;28;20041;-69
2022/01/24 14:54:46;;;;;;;36.37;26.93;;;;;;;;;;5028876;28;20091;-69
2022/01/24 14:57:15;;;;;;;30.90;23.97;;;;;;;;;;5026935;28;20489;-70
2022/01/24 14:59:42;;;;;;;37.13;28.83;;;;;;;;;;5028302;28;20075;-69
2022/01/24 15:02:08;;;;;;;29.43;23.30;;;;;;;;;;5019935;28;20083;-69
2022/01/24 15:04:34;;;;;;;36.17;27.63;;;;;;;;;;5026845;28;20041;-70
2022/01/24 15:07:01;;;;;;;37.37;28.73;;;;;;;;;;5027652;28;20049;-69
2022/01/24 15:09:28;;;;;;;37.07;27.57;;;;;;;;;;5010486;28;20128;-69
2022/01/24 15:11:55;;;;;;;33.77;27.57;;;;;;;;;;5026202;28;20059;-69
2022/01/24 15:14:26;;;;;;;35.43;27.03;;;;;;;;;;5033599;28;20037;-69
2022/01/24 15:27:37;;;;;;;32.73;26.47;;;;;;;;;;5027855;28;20056;-69
2022/01/24 15:30:04;;;;;;;32.63;27.17;;;;;;;;;;5028797;28;20049;-69
2022/01/24 15:32:30;;;;;;;30.97;24.47;;;;;;;;;;5032182;28;20049;-69
2022/01/24 15:34:56;;;;;;;30.97;26.17;;;;;;;;;;5027299;28;20041;-69
2022/01/24 15:37:22;;;;;;;34.43;26.97;;;;;;;;;;5030978;28;20060;-70
2022/01/24 15:39:50;;;;;;;36.43;27.83;;;;;;;;;;5033193;28;20049;-69
2022/01/24 15:42:20;;;;;;;35.03;26.93;;;;;;;;;;5038487;28;20072;-69
2022/01/24 15:45:27;;;;;;;37.60;27.27;;;;;;;;;;5029490;28;20149;-69
2022/01/24 15:49:58;;;;;;;34.03;25.27;;;;;;;;;;5027841;28;20195;-70
2022/01/24 15:52:24;;;;;;;31.47;26.13;;;;;;;;;;5038055;28;20056;-69
2022/01/24 15:54:53;;;;;;;35.57;27.27;;;;;;;;;;5046628;28;20048;-69
2022/01/24 16:00:06;;;;;;;32.77;25.27;;;;;;;;;;5028833;28;20057;-70
2022/01/24 16:02:32;;;;;;;30.73;24.67;;;;;;;;;;5014982;28;20091;-70
2022/01/24 16:04:58;;;;;;;35.03;28.67;;;;;;;;;;5039525;28;20037;-70
2022/01/24 16:07:25;;;;;;;34.10;26.80;;;;;;;;;;5048496;28;20052;-70
2022/01/24 16:09:51;;;;;;;33.27;25.67;;;;;;;;;;5048631;28;20045;-70
2022/01/24 16:12:17;;;;;;;31.00;24.47;;;;;;;;;;5043522;28;20151;-69
2022/01/24 16:14:43;;;;;;;34.50;27.03;;;;;;;;;;5041612;28;20107;-69
2022/01/24 16:17:09;;;;;;;36.60;27.30;;;;;;;;;;5028317;28;20052;-69
2022/01/24 16:19:40;;;;;;;36.97;27.60;;;;;;;;;;5027917;28;20427;-69
2022/01/24 16:27:06;;;;;;;36.53;28.57;;;;;;;;;;5034391;28;20056;-69
2022/01/24 16:29:32;;;;;;;49.00;28.60;;;;;;;;;;5031955;28;20049;-71
2022/01/24 16:31:58;;;;;;;35.73;27.43;;;;;;;;;;5035878;28;20052;-70
2022/01/24 16:34:24;;;;;;;33.63;26.93;;;;;;;;;;5035398;28;20431;-69
2022/01/24 16:36:50;;;;;;;30.77;26.33;;;;;;;;;;5037294;28;20045;-69
2022/01/24 16:39:19;;;;;;;32.77;25.83;;;;;;;;;;5037404;28;20043;-70
2022/01/24 16:41:58;;;;;;;34.80;26.83;;;;;;;;;;5039493;28;20045;-69
2022/01/24 16:47:07;;;;;;;38.30;29.57;;;;;;;;;;5033519;28;20050;-70
2022/01/24 16:49:34;;;;;;;35.80;28.67;;;;;;;;;;5032384;28;20057;-70
2022/01/24 16:52:00;;;;;;;35.47;28.30;;;;;;;;;;5039909;28;20041;-69